Time;durP1;ratioP1;P1;durP2;ratioP2;P2;SDS_P1;SDS_P2;PMS_P1;PMS_P2;Temp;Humidity;BMP_temperature;BMP_pressure;BME280_temperature;BME280_humidity;BME280_pressure;Samples;Min_cycle;Max_cycle;Signal;HPM_P1;HPM_P2
2022/12/23 00:00:01;;;;;;;;;;;;;;;22.00;nan;94975.75;6096551;19;1805;-68
2022/12/23 00:02:04;;;;;;;;;;;;;;;22.01;nan;94977.38;6123604;19;1483;-67
2022/12/23 00:04:10;;;;;;;;;;;;;;;21.99;nan;94974.91;6123379;19;1815;-68
2022/12/23 00:06:15;;;;;;;;;;;;;;;22.00;nan;94976.56;6124177;19;1499;-67
2022/12/23 00:08:18;;;;;;;;;;;;;;;22.03;nan;94975.31;6122009;19;1844;-68
2022/12/23 00:10:21;;;;;;;;;;;;;;;22.00;nan;94979.25;6110018;19;1817;-68
2022/12/23 00:16:58;;;;;;;;;;;;;;;21.99;nan;94988.28;6119992;19;1862;-69
2022/12/23 00:19:02;;;;;;;;;;;;;;;22.03;nan;94994.03;6124084;19;1818;-70
2022/12/23 00:21:09;;;;;;;;;;;;;;;22.04;nan;94983.09;6124112;19;1805;-69
2022/12/23 00:23:12;;;;;;;;;;;;;;;22.05;nan;94990.09;6095970;19;1840;-69
2022/12/23 00:25:16;;;;;;;;;;;;;;;22.06;nan;94999.75;6123169;19;1813;-69
2022/12/23 00:27:19;;;;;;;;;;;;;;;22.06;nan;94997.09;6121692;19;1851;-69
2022/12/23 00:29:22;;;;;;;;;;;;;;;22.07;nan;94996.03;6123572;19;1706;-69
2022/12/23 00:31:26;;;;;;;;;;;;;;;22.11;nan;94999.13;6123753;19;1680;-68
2022/12/23 00:33:30;;;;;;;;;;;;;;;22.09;nan;95002.00;6105181;19;1839;-70
2022/12/23 00:35:33;;;;;;;;;;;;;;;22.12;nan;94996.19;6116911;19;962;-70
2022/12/23 00:37:39;;;;;;;;;;;;;;;22.11;nan;95005.28;6122566;19;1860;-69
2022/12/23 00:44:14;;;;;;;;;;;;;;;22.15;nan;94994.94;6122181;19;1815;-68
2022/12/23 00:46:17;;;;;;;;;;;;;;;22.18;nan;94996.34;6095809;19;1641;-69
2022/12/23 00:50:37;;;;;;;;;;;;;;;22.12;nan;94985.50;6120516;19;854;-69
2022/12/23 00:52:43;;;;;;;;;;;;;;;22.13;nan;94981.75;6120369;19;1021;-68
2022/12/23 00:54:47;;;;;;;;;;;;;;;22.11;nan;94983.88;6121646;19;1841;-69
2022/12/23 00:56:50;;;;;;;;;;;;;;;22.11;nan;94977.69;6096352;19;1861;-69
2022/12/23 00:58:53;;;;;;;;;;;;;;;22.11;nan;94978.50;6120624;19;1852;-68
2022/12/23 01:05:41;;;;;;;;;;;;;;;22.12;nan;94976.66;6119842;19;787;-68
2022/12/23 01:07:47;;;;;;;;;;;;;;;22.11;nan;94965.13;6110798;19;1845;-69
2022/12/23 01:09:50;;;;;;;;;;;;;;;22.15;nan;94962.00;6107197;19;1823;-69
2022/12/23 01:11:53;;;;;;;;;;;;;;;22.18;nan;94969.59;6122340;19;1732;-69
2022/12/23 01:13:56;;;;;;;;;;;;;;;22.15;nan;94978.88;6116716;19;1704;-70
2022/12/23 01:16:02;;;;;;;;;;;;;;;22.22;nan;94984.16;6123127;19;1826;-70
2022/12/23 01:18:05;;;;;;;;;;;;;;;22.20;nan;94976.34;6122348;19;1846;-70
2022/12/23 01:20:09;;;;;;;;;;;;;;;22.24;nan;94971.38;6095271;19;1816;-71
2022/12/23 01:22:12;;;;;;;;;;;;;;;22.30;nan;94979.31;6119418;19;1065;-68
2022/12/23 01:24:18;;;;;;;;;;;;;;;22.29;nan;94980.38;6121868;19;1857;-67
2022/12/23 01:26:22;;;;;;;;;;;;;;;22.25;nan;94968.50;6119854;19;1722;-68
2022/12/23 01:28:25;;;;;;;;;;;;;;;22.21;nan;94977.19;6118995;19;1809;-67
2022/12/23 01:30:28;;;;;;;;;;;;;;;22.26;nan;94980.81;6112678;19;1165;-71
2022/12/23 01:32:31;;;;;;;;;;;;;;;22.30;nan;94981.19;6103547;19;1860;-68
2022/12/23 01:34:35;;;;;;;;;;;;;;;22.27;nan;94979.78;6122744;19;1684;-67
2022/12/23 01:36:38;;;;;;;;;;;;;;;22.26;nan;94982.69;6118546;19;2142;-68
2022/12/23 01:38:42;;;;;;;;;;;;;;;22.29;nan;94983.06;6120227;19;1734;-67
2022/12/23 01:40:48;;;;;;;;;;;;;;;22.27;nan;94970.94;6122048;19;1703;-68
2022/12/23 01:42:48;;;;;;;;;;;;;;;22.29;nan;94974.19;6094294;19;1716;-67
2022/12/23 01:44:50;;;;;;;;;;;;;;;22.31;nan;94980.97;6119507;19;1698;-67
2022/12/23 01:46:54;;;;;;;;;;;;;;;22.29;nan;94975.03;6120262;19;1847;-68
2022/12/23 01:48:57;;;;;;;;;;;;;;;22.32;nan;94968.41;6120804;19;1906;-68
2022/12/23 01:51:04;;;;;;;;;;;;;;;22.34;nan;94966.34;6116754;19;1450;-68
2022/12/23 01:53:09;;;;;;;;;;;;;;;22.34;nan;94966.34;6119217;19;1727;-68
2022/12/23 01:55:12;;;;;;;;;;;;;;;22.28;nan;94961.84;6093995;19;1732;-69
2022/12/23 01:57:18;;;;;;;;;;;;;;;22.34;nan;94956.44;6119200;19;1853;-68
2022/12/23 02:03:54;;;;;;;;;;;;;;;22.34;nan;94947.59;6121930;19;1536;-69
2022/12/23 02:09:15;;;;;;;;;;;;;;;22.36;nan;94945.47;6091034;19;1141;-69
2022/12/23 02:10:40;;;;;;;;;;;;;;;22.33;nan;94943.25;6119904;19;1683;-72
2022/12/23 02:12:57;;;;;;;;;;;;;;;22.29;nan;94936.72;6119544;19;1632;-71
2022/12/23 02:17:24;;;;;;;;;;;;;;;22.27;nan;94923.56;6093374;19;1854;-71
2022/12/23 02:19:41;;;;;;;;;;;;;;;22.29;nan;94915.31;6119667;19;1813;-70
2022/12/23 02:21:58;;;;;;;;;;;;;;;22.27;nan;94917.41;6120946;19;1674;-71
2022/12/23 02:24:32;;;;;;;;;;;;;;;22.28;nan;94917.19;6120859;19;1813;-71
2022/12/23 02:26:51;;;;;;;;;;;;;;;22.23;nan;94909.00;6126655;19;1910;-71
2022/12/23 02:29:12;;;;;;;;;;;;;;;22.26;nan;94913.91;6098613;19;1805;-71
2022/12/23 02:31:23;;;;;;;;;;;;;;;22.27;nan;94912.84;6124590;19;1889;-71
2022/12/23 02:33:36;;;;;;;;;;;;;;;22.24;nan;94918.66;6127019;19;1788;-70
2022/12/23 02:35:45;;;;;;;;;;;;;;;22.25;nan;94914.13;6126510;19;1804;-70
2022/12/23 02:37:54;;;;;;;;;;;;;;;22.27;nan;94915.53;6124469;19;1846;-72
2022/12/23 02:40:01;;;;;;;;;;;;;;;22.29;nan;94915.31;6111407;19;1768;-72
2022/12/23 02:42:07;;;;;;;;;;;;;;;22.29;nan;94918.81;6112430;19;1590;-72
2022/12/23 02:44:15;;;;;;;;;;;;;;;22.30;nan;94917.75;6124285;19;1859;-72
2022/12/23 02:46:23;;;;;;;;;;;;;;;22.30;nan;94922.28;6124833;19;1727;-71
2022/12/23 02:48:31;;;;;;;;;;;;;;;22.27;nan;94917.41;6124463;19;1717;-71
2022/12/23 02:50:36;;;;;;;;;;;;;;;22.28;nan;94919.03;6123470;19;1766;-71
2022/12/23 02:52:40;;;;;;;;;;;;;;;22.37;nan;94928.41;6096607;19;1619;-70
2022/12/23 02:54:47;;;;;;;;;;;;;;;22.43;nan;94915.97;6125477;19;1771;-70
2022/12/23 02:56:52;;;;;;;;;;;;;;;22.42;nan;94927.72;6122817;19;1853;-70
2022/12/23 02:58:58;;;;;;;;;;;;;;;22.43;nan;94921.31;6124736;19;1706;-71
2022/12/23 03:01:02;;;;;;;;;;;;;;;22.43;nan;94927.50;6125547;19;1756;-71
2022/12/23 03:03:08;;;;;;;;;;;;;;;22.42;nan;94915.13;6097752;19;1819;-71
2022/12/23 03:05:25;;;;;;;;;;;;;;;22.40;nan;94914.56;6125762;19;1823;-72
2022/12/23 03:07:32;;;;;;;;;;;;;;;22.44;nan;94917.59;6125594;19;1704;-71
2022/12/23 03:09:41;;;;;;;;;;;;;;;22.39;nan;94920.94;6127026;19;1821;-71
2022/12/23 03:11:50;;;;;;;;;;;;;;;22.41;nan;94926.91;6125200;19;1621;-70
2022/12/23 03:14:07;;;;;;;;;;;;;;;22.40;nan;94924.47;6110326;19;1628;-71
2022/12/23 03:16:15;;;;;;;;;;;;;;;22.42;nan;94920.50;6110826;19;1714;-71
2022/12/23 03:18:26;;;;;;;;;;;;;;;22.41;nan;94932.25;6123215;19;1863;-71
2022/12/23 03:20:33;;;;;;;;;;;;;;;22.47;nan;94931.34;6125208;19;1733;-71
2022/12/23 03:22:39;;;;;;;;;;;;;;;22.49;nan;94926.59;6125522;19;1790;-71
2022/12/23 03:24:46;;;;;;;;;;;;;;;22.49;nan;94926.59;6126034;19;1721;-71
2022/12/23 03:26:52;;;;;;;;;;;;;;;22.45;nan;94925.41;6096365;19;1806;-71
2022/12/23 03:28:57;;;;;;;;;;;;;;;22.46;nan;94915.53;6124348;19;1769;-71
2022/12/23 03:31:01;;;;;;;;;;;;;;;22.46;nan;94921.69;6122379;19;1635;-71
2022/12/23 03:33:06;;;;;;;;;;;;;;;22.46;nan;94921.69;6125527;19;1790;-71
2022/12/23 03:35:15;;;;;;;;;;;;;;;22.36;nan;94924.06;6122917;19;1742;-72
2022/12/23 03:37:20;;;;;;;;;;;;;;;22.36;nan;94926.75;6095128;19;1837;-71
2022/12/23 03:39:25;;;;;;;;;;;;;;;22.34;nan;94924.31;6123541;19;1725;-72
2022/12/23 03:41:32;;;;;;;;;;;;;;;22.35;nan;94914.41;6123846;19;1512;-72
2022/12/23 03:43:38;;;;;;;;;;;;;;;22.39;nan;94920.94;6124363;19;1669;-72
2022/12/23 03:45:45;;;;;;;;;;;;;;;22.37;nan;94928.41;6124560;19;1517;-71
2022/12/23 03:47:51;;;;;;;;;;;;;;;22.39;nan;94930.84;6119379;19;1569;-71
2022/12/23 03:49:56;;;;;;;;;;;;;;;22.43;nan;94940.06;6107887;19;1717;-71
2022/12/23 03:52:04;;;;;;;;;;;;;;;22.42;nan;94923.16;6122734;19;1832;-71
2022/12/23 03:54:11;;;;;;;;;;;;;;;22.42;nan;94925.03;6122078;19;1765;-71
2022/12/23 03:56:16;;;;;;;;;;;;;;;22.46;nan;94921.69;6121112;19;1140;-71
2022/12/23 03:58:25;;;;;;;;;;;;;;;22.44;nan;94936.34;6122687;19;1855;-71
2022/12/23 04:00:30;;;;;;;;;;;;;;;22.44;nan;94933.66;6096269;19;1822;-71
2022/12/23 04:02:37;;;;;;;;;;;;;;;22.41;nan;94936.78;6122850;19;1736;-74
2022/12/23 04:04:51;;;;;;;;;;;;;;;22.53;nan;94934.97;6123494;19;1490;-69
2022/12/23 04:06:58;;;;;;;;;;;;;;;22.39;nan;94915.59;6121622;19;1495;-69
2022/12/23 04:09:04;;;;;;;;;;;;;;;22.47;nan;94931.34;6119774;19;1578;-71
2022/12/23 04:11:08;;;;;;;;;;;;;;;22.43;nan;94929.34;6108604;19;1732;-71
2022/12/23 04:13:11;;;;;;;;;;;;;;;22.44;nan;94930.97;6104957;19;1833;-70
2022/12/23 04:15:14;;;;;;;;;;;;;;;22.48;nan;94924.13;6122252;19;1525;-70
2022/12/23 04:17:18;;;;;;;;;;;;;;;22.39;nan;94937.00;6122369;19;1873;-70
2022/12/23 04:19:22;;;;;;;;;;;;;;;22.34;nan;94931.53;6121400;19;1799;-70
2022/12/23 04:21:25;;;;;;;;;;;;;;;22.27;nan;94930.78;6122018;19;1760;-70
2022/12/23 04:23:28;;;;;;;;;;;;;;;22.24;nan;94924.00;6095110;19;1822;-70
2022/12/23 04:25:34;;;;;;;;;;;;;;;22.18;nan;94932.13;6119870;19;1629;-70
2022/12/23 04:27:37;;;;;;;;;;;;;;;22.22;nan;94933.31;6122811;19;1746;-71
2022/12/23 04:29:41;;;;;;;;;;;;;;;22.13;nan;94938.13;6122393;19;1908;-71
2022/12/23 04:31:44;;;;;;;;;;;;;;;22.15;nan;94933.38;6122321;19;1717;-70
2022/12/23 04:33:47;;;;;;;;;;;;;;;22.10;nan;94928.69;6111955;19;1647;-70
2022/12/23 04:35:51;;;;;;;;;;;;;;;22.11;nan;94935.69;6106656;19;1787;-70
2022/12/23 04:37:54;;;;;;;;;;;;;;;22.09;nan;94931.59;6121159;19;1841;-71
2022/12/23 04:39:57;;;;;;;;;;;;;;;22.08;nan;94930.78;6121942;19;1746;-67
2022/12/23 04:42:03;;;;;;;;;;;;;;;22.05;nan;94925.91;6120657;19;1783;-70
2022/12/23 04:44:07;;;;;;;;;;;;;;;22.04;nan;94918.06;6120100;19;1843;-71
2022/12/23 04:46:10;;;;;;;;;;;;;;;22.01;nan;94915.84;6093756;19;1548;-70
2022/12/23 04:48:13;;;;;;;;;;;;;;;22.05;nan;94912.50;6121124;19;1351;-70
2022/12/23 04:50:17;;;;;;;;;;;;;;;19.10;nan;94917.91;6121465;19;1783;-72
2022/12/23 04:52:21;;;;;;;;;;;;;;;16.35;nan;94927.28;6121416;19;1739;-69
2022/12/23 04:54:24;;;;;;;;;;;;;;;;;;6120187;19;1688;-70
2022/12/23 04:56:27;;;;;;;;;;;;;;;13.27;nan;94924.00;6114338;19;1896;-70
2022/12/23 04:58:33;;;;;;;;;;;;;;;12.45;nan;94932.75;6103401;19;1865;-70
2022/12/23 05:00:36;;;;;;;;;;;;;;;12.24;nan;94920.00;6121262;19;1654;-71
2022/12/23 05:02:39;;;;;;;;;;;;;;;15.12;nan;94926.00;6119511;19;1643;-70
2022/12/23 05:04:43;;;;;;;;;;;;;;;16.32;nan;94936.41;6122383;19;1418;-70
2022/12/23 05:06:46;;;;;;;;;;;;;;;16.83;nan;94941.69;6119624;19;1629;-69
2022/12/23 05:08:50;;;;;;;;;;;;;;;17.69;nan;94938.88;6092311;19;1439;-70
2022/12/23 05:10:53;;;;;;;;;;;;;;;18.47;nan;94950.13;6118548;19;1442;-69
2022/12/23 05:12:57;;;;;;;;;;;;;;;18.98;nan;94951.50;6117800;19;1490;-70
2022/12/23 05:15:03;;;;;;;;;;;;;;;19.35;nan;94939.44;6119499;19;1781;-69
2022/12/23 05:17:09;;;;;;;;;;;;;;;19.55;nan;94935.94;6116711;19;1662;-69
2022/12/23 05:19:12;;;;;;;;;;;;;;;19.70;nan;94933.88;6117249;19;1846;-69
2022/12/23 05:21:15;;;;;;;;;;;;;;;19.85;nan;94949.63;6092368;19;1845;-69
2022/12/23 05:23:19;;;;;;;;;;;;;;;19.98;nan;94940.78;6116465;19;958;-69
2022/12/23 05:25:22;;;;;;;;;;;;;;;20.07;nan;94939.53;6113958;19;970;-69
2022/12/23 05:27:25;;;;;;;;;;;;;;;20.19;nan;94942.38;6115711;19;1121;-69
2022/12/23 05:29:29;;;;;;;;;;;;;;;20.29;nan;94940.88;6118296;19;1020;-69
2022/12/23 05:31:34;;;;;;;;;;;;;;;20.35;nan;94955.25;6099074;19;1551;-69
2022/12/23 05:33:38;;;;;;;;;;;;;;;20.43;nan;94960.38;6115636;19;1025;-69
2022/12/23 05:35:41;;;;;;;;;;;;;;;20.45;nan;94952.13;6113939;19;1261;-69
2022/12/23 05:37:44;;;;;;;;;;;;;;;20.49;nan;94966.72;6114554;19;1000;-69
2022/12/23 05:39:48;;;;;;;;;;;;;;;20.52;nan;94960.94;6113379;19;1041;-70
2022/12/23 05:41:51;;;;;;;;;;;;;;;20.55;nan;94956.00;6113984;19;1091;-69
2022/12/23 05:43:54;;;;;;;;;;;;;;;20.56;nan;94954.13;6087343;19;1255;-70
2022/12/23 05:45:57;;;;;;;;;;;;;;;20.57;nan;94958.44;6114822;19;1064;-69
2022/12/23 05:48:03;;;;;;;;;;;;;;;20.64;nan;94956.56;6113427;19;1112;-69
2022/12/23 05:50:07;;;;;;;;;;;;;;;20.71;nan;94951.19;6114948;19;921;-69
2022/12/23 05:52:11;;;;;;;;;;;;;;;20.86;nan;94950.88;6117796;19;1351;-70
2022/12/23 05:54:14;;;;;;;;;;;;;;;20.90;nan;94944.91;6100377;19;1094;-69
2022/12/23 05:56:17;;;;;;;;;;;;;;;20.94;nan;94954.16;6112387;19;1144;-69
2022/12/23 05:58:20;;;;;;;;;;;;;;;21.02;nan;94963.72;6117632;19;1846;-70
2022/12/23 06:00:24;;;;;;;;;;;;;;;21.05;nan;94952.63;6122537;19;1074;-70
2022/12/23 06:02:27;;;;;;;;;;;;;;;21.10;nan;94950.13;6122741;19;1266;-70
2022/12/23 06:04:33;;;;;;;;;;;;;;;21.13;nan;94957.69;6124269;19;1044;-70
2022/12/23 06:06:36;;;;;;;;;;;;;;;21.15;nan;94954.81;6097427;19;1049;-69
2022/12/23 06:08:40;;;;;;;;;;;;;;;21.16;nan;94951.91;6124263;19;1028;-70
2022/12/23 06:10:43;;;;;;;;;;;;;;;21.17;nan;94953.59;6122654;19;1147;-70
2022/12/23 06:12:46;;;;;;;;;;;;;;;21.18;nan;94952.56;6122747;19;1065;-69
2022/12/23 06:14:49;;;;;;;;;;;;;;;21.16;nan;94957.25;6123433;19;1049;-70
2022/12/23 06:16:53;;;;;;;;;;;;;;;21.16;nan;94953.78;6110079;19;1398;-70
2022/12/23 06:18:56;;;;;;;;;;;;;;;21.15;nan;94955.63;6111804;19;1844;-70
2022/12/23 06:21:02;;;;;;;;;;;;;;;21.18;nan;94957.91;6120884;19;1393;-70
2022/12/23 06:23:06;;;;;;;;;;;;;;;21.19;nan;94964.06;6123558;19;1065;-70
2022/12/23 06:25:09;;;;;;;;;;;;;;;21.19;nan;94959.53;6123577;19;1289;-70
2022/12/23 06:27:13;;;;;;;;;;;;;;;21.18;nan;94963.25;6124190;19;1135;-70
2022/12/23 06:29:16;;;;;;;;;;;;;;;21.19;nan;94964.06;6097599;19;1148;-70
2022/12/23 06:31:20;;;;;;;;;;;;;;;21.26;nan;94966.72;6119756;19;1447;-69
2022/12/23 06:33:23;;;;;;;;;;;;;;;21.26;nan;94956.03;6123313;19;1053;-70
2022/12/23 06:35:26;;;;;;;;;;;;;;;21.27;nan;94963.00;6122748;19;1065;-70
2022/12/23 06:37:32;;;;;;;;;;;;;;;21.27;nan;94960.31;6123177;19;1030;-70
2022/12/23 06:39:36;;;;;;;;;;;;;;;21.24;nan;94953.56;6107906;19;1895;-70
2022/12/23 06:41:39;;;;;;;;;;;;;;;21.27;nan;94957.66;6112262;19;1539;-70
2022/12/23 06:43:42;;;;;;;;;;;;;;;21.28;nan;94967.28;6123011;19;1026;-69
2022/12/23 06:45:47;;;;;;;;;;;;;;;21.29;nan;94969.75;6122885;19;1041;-69
2022/12/23 06:47:51;;;;;;;;;;;;;;;21.31;nan;94967.66;6122535;19;1116;-69
2022/12/23 06:49:54;;;;;;;;;;;;;;;21.31;nan;94961.50;6122466;19;1073;-69
2022/12/23 06:51:57;;;;;;;;;;;;;;;21.31;nan;94959.66;6096028;19;1124;-71
2022/12/23 06:54:03;;;;;;;;;;;;;;;21.33;nan;94964.78;6122310;19;1016;-69
2022/12/23 06:56:07;;;;;;;;;;;;;;;21.36;nan;94970.50;6122640;19;1171;-69
2022/12/23 06:58:10;;;;;;;;;;;;;;;21.37;nan;94971.31;6122473;19;989;-70
2022/12/23 07:00:15;;;;;;;;;;;;;;;21.36;nan;94975.03;6120357;19;1849;-69
2022/12/23 07:02:18;;;;;;;;;;;;;;;21.35;nan;94970.75;6107665;19;1297;-70
2022/12/23 07:04:21;;;;;;;;;;;;;;;21.34;nan;94977.09;6110779;19;1052;-69
2022/12/23 07:06:25;;;;;;;;;;;;;;;21.36;nan;94981.19;6122694;19;1024;-70
2022/12/23 07:08:28;;;;;;;;;;;;;;;21.39;nan;94978.09;6122011;19;1287;-70
2022/12/23 07:10:35;;;;;;;;;;;;;;;21.39;nan;94974.59;6120944;19;1027;-70
2022/12/23 07:12:38;;;;;;;;;;;;;;;21.38;nan;94983.66;6120779;19;1183;-70
2022/12/23 07:14:41;;;;;;;;;;;;;;;21.41;nan;94988.59;6095704;19;1033;-70
2022/12/23 07:16:45;;;;;;;;;;;;;;;21.39;nan;94979.94;6121541;19;1062;-70
2022/12/23 07:18:48;;;;;;;;;;;;;;;21.41;nan;94978.69;6120988;19;1826;-70
2022/12/23 07:20:51;;;;;;;;;;;;;;;21.40;nan;94978.94;6119355;19;1516;-70
2022/12/23 07:22:56;;;;;;;;;;;;;;;21.40;nan;94976.25;6121255;19;1012;-69
2022/12/23 07:24:59;;;;;;;;;;;;;;;21.37;nan;94974.00;6108980;19;1045;-71
2022/12/23 07:27:05;;;;;;;;;;;;;;;21.37;nan;94971.31;6108169;19;1132;-69
2022/12/23 07:29:08;;;;;;;;;;;;;;;21.39;nan;94979.94;6121817;19;1064;-69
2022/12/23 07:31:12;;;;;;;;;;;;;;;21.39;nan;94977.28;6120081;19;1327;-69
2022/12/23 07:33:15;;;;;;;;;;;;;;;21.37;nan;94979.34;6121411;19;1124;-69
2022/12/23 07:35:18;;;;;;;;;;;;;;;21.37;nan;94988.19;6120865;19;1022;-69
2022/12/23 07:37:22;;;;;;;;;;;;;;;21.39;nan;94986.09;6093960;19;1081;-69
2022/12/23 07:39:25;;;;;;;;;;;;;;;21.39;nan;94985.28;6119483;19;1838;-70
2022/12/23 07:41:28;;;;;;;;;;;;;;;21.37;nan;94988.19;6118990;19;1572;-69
2022/12/23 07:43:34;;;;;;;;;;;;;;;21.36;nan;94989.22;6121893;19;1040;-69
2022/12/23 07:45:37;;;;;;;;;;;;;;;21.39;nan;94990.63;6118508;19;1040;-69
2022/12/23 07:47:41;;;;;;;;;;;;;;;21.38;nan;94989.84;6107694;19;1258;-69
2022/12/23 07:49:46;;;;;;;;;;;;;;;21.40;nan;94995.78;6107989;19;1021;-69
2022/12/23 07:51:49;;;;;;;;;;;;;;;21.34;nan;94993.13;6119396;19;1450;-70
2022/12/23 07:53:53;;;;;;;;;;;;;;;21.36;nan;94996.44;6120363;19;1112;-70
2022/12/23 07:55:56;;;;;;;;;;;;;;;21.37;nan;94995.38;6121180;19;1008;-70
2022/12/23 07:57:59;;;;;;;;;;;;;;;21.33;nan;94999.53;6121177;19;1179;-70
2022/12/23 08:00:05;;;;;;;;;;;;;;;21.35;nan;95003.63;6092714;19;1846;-71
2022/12/23 08:02:10;;;;;;;;;;;;;;;21.39;nan;95012.84;6118732;19;1490;-70
2022/12/23 08:04:14;;;;;;;;;;;;;;;21.35;nan;95018.84;6121067;19;1020;-71
2022/12/23 08:06:17;;;;;;;;;;;;;;;21.32;nan;95006.75;6119329;19;1394;-69
2022/12/23 08:08:21;;;;;;;;;;;;;;;21.31;nan;95009.59;6120368;19;1043;-68
2022/12/23 08:10:24;;;;;;;;;;;;;;;21.31;nan;95004.28;6107109;19;1131;-70
2022/12/23 08:12:27;;;;;;;;;;;;;;;21.40;nan;95008.34;6106666;19;1121;-69
2022/12/23 08:14:31;;;;;;;;;;;;;;;21.32;nan;95011.28;6120746;19;1450;-71
2022/12/23 08:16:36;;;;;;;;;;;;;;;21.26;nan;95006.78;6119868;19;1037;-70
2022/12/23 08:18:41;;;;;;;;;;;;;;;21.26;nan;95007.59;6118055;19;1454;-70
2022/12/23 08:20:45;;;;;;;;;;;;;;;21.27;nan;95014.56;6118943;19;1842;-69
2022/12/23 08:22:48;;;;;;;;;;;;;;;21.26;nan;95007.59;6091527;19;1053;-69
2022/12/23 08:24:52;;;;;;;;;;;;;;;21.36;nan;95004.44;6118067;19;1448;-70
2022/12/23 08:26:56;;;;;;;;;;;;;;;21.38;nan;95007.72;6121339;19;1034;-68
2022/12/23 08:29:01;;;;;;;;;;;;;;;21.37;nan;95008.75;6121067;19;1042;-69
2022/12/23 08:31:05;;;;;;;;;;;;;;;21.39;nan;95007.50;6119713;19;1104;-69
2022/12/23 08:33:11;;;;;;;;;;;;;;;21.42;nan;95006.25;6113721;19;1348;-69
2022/12/23 08:35:14;;;;;;;;;;;;;;;21.45;nan;95005.81;6109946;19;1024;-68
2022/12/23 08:37:18;;;;;;;;;;;;;;;21.45;nan;95006.66;6119342;19;1148;-71
2022/12/23 08:39:21;;;;;;;;;;;;;;;21.44;nan;95006.84;6119450;19;1849;-70
2022/12/23 08:41:27;;;;;;;;;;;;;;;21.44;nan;95001.50;6118351;19;1788;-71
2022/12/23 08:43:30;;;;;;;;;;;;;;;21.48;nan;95008.03;6119708;19;1065;-71
2022/12/23 08:45:37;;;;;;;;;;;;;;;21.47;nan;95006.41;6092956;19;1148;-70
2022/12/23 08:47:40;;;;;;;;;;;;;;;21.51;nan;95002.25;6119626;19;1122;-70
2022/12/23 08:49:46;;;;;;;;;;;;;;;21.48;nan;94999.22;6120233;19;981;-69
2022/12/23 08:51:49;;;;;;;;;;;;;;;21.50;nan;95002.50;6119260;19;963;-69
2022/12/23 08:53:55;;;;;;;;;;;;;;;21.52;nan;95001.25;6119687;19;1036;-69
2022/12/23 08:55:58;;;;;;;;;;;;;;;21.54;nan;95009.88;6102825;19;1056;-69
2022/12/23 08:58:01;;;;;;;;;;;;;;;21.53;nan;94991.38;6114070;19;1089;-70
2022/12/23 09:00:05;;;;;;;;;;;;;;;21.54;nan;94987.63;6117694;19;1845;-69
2022/12/23 09:02:10;;;;;;;;;;;;;;;21.49;nan;94991.00;6118690;19;1355;-69
2022/12/23 09:04:13;;;;;;;;;;;;;;;21.51;nan;95002.25;6118925;19;1069;-70
2022/12/23 09:06:20;;;;;;;;;;;;;;;21.54;nan;94996.50;6119325;19;1014;-69
2022/12/23 09:08:23;;;;;;;;;;;;;;;21.54;nan;94993.00;6092214;19;1126;-70
2022/12/23 09:10:27;;;;;;;;;;;;;;;21.51;nan;94988.09;6119441;19;1057;-70
2022/12/23 09:12:30;;;;;;;;;;;;;;;21.52;nan;94995.09;6118232;19;1124;-70
2022/12/23 09:14:33;;;;;;;;;;;;;;;21.53;nan;94991.38;6118601;19;966;-70
2022/12/23 09:16:37;;;;;;;;;;;;;;;21.50;nan;94987.25;6119243;19;1032;-70
2022/12/23 09:18:40;;;;;;;;;;;;;;;21.44;nan;94988.97;6102194;19;1029;-69
2022/12/23 09:20:44;;;;;;;;;;;;;;;21.49;nan;94991.00;6111166;19;1835;-70
2022/12/23 09:22:50;;;;;;;;;;;;;;;21.54;nan;94977.78;6118154;19;982;-70
2022/12/23 09:24:54;;;;;;;;;;;;;;;21.61;nan;94988.41;6118969;19;1033;-70
2022/12/23 09:26:57;;;;;;;;;;;;;;;21.60;nan;94992.97;6117447;19;1398;-70
2022/12/23 09:29:01;;;;;;;;;;;;;;;21.64;nan;94991.47;6118331;19;1022;-69
2022/12/23 09:31:08;;;;;;;;;;;;;;;21.55;nan;94978.59;6091602;19;1134;-69
2022/12/23 09:33:11;;;;;;;;;;;;;;;21.61;nan;94993.78;6117829;19;1037;-69
2022/12/23 09:35:14;;;;;;;;;;;;;;;21.62;nan;94990.84;6115241;19;1350;-68
2022/12/23 09:37:19;;;;;;;;;;;;;;;21.56;nan;94989.06;6117487;19;1124;-69
2022/12/23 09:39:25;;;;;;;;;;;;;;;21.61;nan;94991.91;6118440;19;1853;-70
2022/12/23 09:41:35;;;;;;;;;;;;;;;21.64;nan;94993.34;6097652;19;994;-70
2022/12/23 09:43:43;;;;;;;;;;;;;;;21.61;nan;94985.75;6116583;19;1139;-69
2022/12/23 09:45:55;;;;;;;;;;;;;;;21.57;nan;94989.88;6118445;19;1021;-69
2022/12/23 09:47:59;;;;;;;;;;;;;;;21.59;nan;94985.94;6115933;19;1430;-70
2022/12/23 09:50:03;;;;;;;;;;;;;;;21.61;nan;94991.91;6118348;19;1021;-69
2022/12/23 09:52:11;;;;;;;;;;;;;;;21.63;nan;94989.03;6111632;19;1054;-69
2022/12/23 09:54:17;;;;;;;;;;;;;;;21.58;nan;94983.50;6104385;19;1149;-69
2022/12/23 09:56:26;;;;;;;;;;;;;;;21.59;nan;94979.78;6118086;19;1077;-69
2022/12/23 09:58:31;;;;;;;;;;;;;;;21.58;nan;94980.84;6115563;19;1378;-69
2022/12/23 10:00:38;;;;;;;;;;;;;;;21.56;nan;94986.38;6116917;19;1826;-69
2022/12/23 10:02:49;;;;;;;;;;;;;;;21.57;nan;94976.50;6116468;19;1394;-69
2022/12/23 10:04:56;;;;;;;;;;;;;;;21.56;nan;94975.69;6090755;19;1036;-70
2022/12/23 10:07:08;;;;;;;;;;;;;;;21.54;nan;94977.78;6116774;19;1068;-70
2022/12/23 10:09:12;;;;;;;;;;;;;;;21.54;nan;94972.44;6117448;19;1033;-70
2022/12/23 10:11:18;;;;;;;;;;;;;;;21.56;nan;94975.69;6117234;19;1052;-70
2022/12/23 10:13:28;;;;;;;;;;;;;;;21.60;nan;94974.25;6115005;19;1215;-69
2022/12/23 10:15:34;;;;;;;;;;;;;;;21.55;nan;94974.06;6096695;19;1052;-70
2022/12/23 10:17:41;;;;;;;;;;;;;;;21.52;nan;94969.16;6116639;19;1068;-70
2022/12/23 10:19:46;;;;;;;;;;;;;;;21.52;nan;94963.81;6117372;19;1839;-70
2022/12/23 10:21:50;;;;;;;;;;;;;;;21.56;nan;94956.97;6116851;19;1066;-70
2022/12/23 10:23:55;;;;;;;;;;;;;;;21.54;nan;94964.41;6116798;19;1045;-70
2022/12/23 10:25:58;;;;;;;;;;;;;;;21.55;nan;94958.03;6115508;19;1476;-70
2022/12/23 10:28:01;;;;;;;;;;;;;;;21.57;nan;94960.47;6089942;19;1167;-69
2022/12/23 10:30:10;;;;;;;;;;;;;;;21.51;nan;94962.16;6117067;19;1128;-69
2022/12/23 10:32:21;;;;;;;;;;;;;;;21.55;nan;94960.69;6116769;19;1005;-70
2022/12/23 10:34:27;;;;;;;;;;;;;;;21.49;nan;94953.56;6117027;19;1048;-69
2022/12/23 10:36:34;;;;;;;;;;;;;;;21.50;nan;94960.53;6116650;19;967;-70
2022/12/23 10:38:44;;;;;;;;;;;;;;;21.52;nan;94947.78;6090739;19;1106;-70
2022/12/23 10:40:54;;;;;;;;;;;;;;;21.52;nan;94947.78;6116118;19;1853;-70
2022/12/23 10:43:05;;;;;;;;;;;;;;;21.52;nan;94939.75;6116722;19;1079;-69
2022/12/23 10:45:18;;;;;;;;;;;;;;;21.51;nan;94938.09;6117097;19;1037;-69
2022/12/23 10:47:27;;;;;;;;;;;;;;;21.53;nan;94945.91;6120170;19;1397;-69
2022/12/23 10:49:37;;;;;;;;;;;;;;;21.49;nan;94937.53;6106179;19;1518;-68
2022/12/23 10:51:47;;;;;;;;;;;;;;;21.50;nan;94933.81;6120979;19;1050;-70
2022/12/23 10:53:52;;;;;;;;;;;;;;;21.51;nan;94924.72;6122601;19;1017;-69
2022/12/23 10:55:56;;;;;;;;;;;;;;;21.52;nan;94928.25;6120189;19;1463;-70
2022/12/23 10:58:03;;;;;;;;;;;;;;;21.55;nan;94919.78;6122261;19;1042;-70
2022/12/23 11:00:18;;;;;;;;;;;;;;;21.53;nan;94928.00;6122455;19;1817;-70
2022/12/23 11:02:33;;;;;;;;;;;;;;;21.51;nan;94919.38;6106676;19;1288;-69
2022/12/23 11:04:38;;;;;;;;;;;;;;;21.52;nan;94922.91;6122406;19;962;-70
2022/12/23 11:06:44;;;;;;;;;;;;;;;21.45;nan;94921.13;6121664;19;1112;-70
2022/12/23 11:08:48;;;;;;;;;;;;;;;21.52;nan;94920.22;6122336;19;1117;-70
2022/12/23 11:10:51;;;;;;;;;;;;;;;21.51;nan;94923.91;6120123;19;1441;-69
2022/12/23 11:12:55;;;;;;;;;;;;;;;21.47;nan;94923.53;6092117;19;1456;-69
2022/12/23 11:14:59;;;;;;;;;;;;;;;21.49;nan;94926.81;6121957;19;1060;-69
2022/12/23 11:17:06;;;;;;;;;;;;;;;21.50;nan;94924.97;6121659;19;1038;-69
2022/12/23 11:19:16;;;;;;;;;;;;;;;21.51;nan;94919.38;6122040;19;1022;-69
2022/12/23 11:21:19;;;;;;;;;;;;;;;21.47;nan;94914.72;6118691;19;1837;-69
2022/12/23 11:23:26;;;;;;;;;;;;;;;21.45;nan;94914.91;6108985;19;1060;-69
2022/12/23 11:25:31;;;;;;;;;;;;;;;21.44;nan;94903.41;6109240;19;1081;-71
2022/12/23 11:27:36;;;;;;;;;;;;;;;21.44;nan;94911.44;6119502;19;1375;-70
2022/12/23 11:29:40;;;;;;;;;;;;;;;21.43;nan;94907.13;6122084;19;1036;-70
2022/12/23 11:31:44;;;;;;;;;;;;;;;21.42;nan;94910.84;6121519;19;962;-70
2022/12/23 11:33:53;;;;;;;;;;;;;;;21.39;nan;94919.28;6121895;19;986;-70
2022/12/23 11:36:04;;;;;;;;;;;;;;;21.39;nan;94924.63;6093725;19;1153;-69
2022/12/23 11:38:14;;;;;;;;;;;;;;;21.40;nan;94923.63;6121557;19;1116;-69
2022/12/23 11:40:23;;;;;;;;;;;;;;;21.43;nan;94928.53;6121539;19;1845;-70
2022/12/23 11:42:29;;;;;;;;;;;;;;;21.41;nan;94927.09;6120875;19;1080;-69
2022/12/23 11:44:35;;;;;;;;;;;;;;;21.41;nan;94924.44;6121673;19;1080;-69